Time,TemperatureF,DewpointF,PressureIn,WindDirection,WindDirectionDegrees,WindSpeedMPH,WindSpeedGustMPH,Humidity,HourlyPrecipIn,Conditions,Clouds,dailyrainin,SolarRadiationWatts/m^2,SoftwareType,DateUTC
2013-05-02 00:06:00,53.8,42.0,30.41,NW,313,0.0,2.0,64,0.00,,,0.00,0,weatherlink.com 1.10,2013-05-02 04:06:00,
2013-05-02 00:21:00,53.5,42.0,30.40,NW,313,0.0,1.0,65,0.00,,,0.00,0,weatherlink.com 1.10,2013-05-02 04:21:00,
2013-05-02 00:36:00,53.0,42.0,30.40,NNW,329,0.0,3.0,66,0.00,,,0.00,0,weatherlink.com 1.10,2013-05-02 04:36:00,
2013-05-02 00:51:00,52.4,42.0,30.41,NNW,329,0.0,1.0,68,0.00,,,0.00,0,weatherlink.com 1.10,2013-05-02 04:51:00,
2013-05-02 01:06:00,51.8,42.0,30.40,NNW,328,0.0,1.0,70,0.00,,,0.00,0,weatherlink.com 1.10,2013-05-02 05:06:00,
2013-05-02 01:21:00,51.4,42.0,30.39,NNW,329,0.0,2.0,71,0.00,,,0.00,0,weatherlink.com 1.10,2013-05-02 05:21:00,
2013-05-02 01:36:00,50.7,42.0,30.39,NNW,329,0.0,0.0,73,0.00,,,0.00,0,weatherlink.com 1.10,2013-05-02 05:36:00,
2013-05-02 01:51:00,50.6,43.0,30.39,NNW,329,0.0,1.0,74,0.00,,,0.00,0,weatherlink.com 1.10,2013-05-02 05:51:00,
2013-05-02 02:06:00,50.2,43.0,30.39,NNW,329,0.0,1.0,75,0.00,,,0.00,0,weatherlink.com 1.10,2013-05-02 06:06:00,
2013-05-02 02:21:00,49.9,43.0,30.39,NNW,329,0.0,1.0,76,0.00,,,0.00,0,weatherlink.com 1.10,2013-05-02 06:21:00,
2013-05-02 02:36:00,49.5,43.0,30.39,NNW,329,0.0,0.0,77,0.00,,,0.00,0,weatherlink.com 1.10,2013-05-02 06:36:00,
2013-05-02 02:51:00,49.0,43.0,30.39,NNW,329,0.0,0.0,79,0.00,,,0.00,0,weatherlink.com 1.10,2013-05-02 06:51:00,
2013-05-02 03:07:00,48.2,42.0,30.38,NNW,329,0.0,0.0,80,0.00,,,0.00,0,weatherlink.com 1.10,2013-05-02 07:07:00,
2013-05-02 03:22:00,47.7,43.0,30.39,NNW,329,0.0,0.0,82,0.00,,,0.00,0,weatherlink.com 1.10,2013-05-02 07:22:00,
2013-05-02 03:37:00,47.2,42.0,30.39,NNW,328,0.0,0.0,83,0.00,,,0.00,0,weatherlink.com 1.10,2013-05-02 07:37:00,
2013-05-02 03:52:00,46.7,42.0,30.39,NNW,329,0.0,0.0,83,0.00,,,0.00,0,weatherlink.com 1.10,2013-05-02 07:52:00,
2013-05-02 04:07:00,46.2,42.0,30.39,NNW,329,0.0,0.0,85,0.00,,,0.00,0,weatherlink.com 1.10,2013-05-02 08:07:00,
2013-05-02 04:22:00,45.4,42.0,30.39,NNW,329,0.0,0.0,86,0.00,,,0.00,0,weatherlink.com 1.10,2013-05-02 08:22:00,
2013-05-02 04:37:00,45.0,41.0,30.39,NNW,329,0.0,1.0,86,0.00,,,0.00,0,weatherlink.com 1.10,2013-05-02 08:37:00,
2013-05-02 04:52:00,44.6,41.0,30.39,NNW,329,0.0,0.0,87,0.00,,,0.00,0,weatherlink.com 1.10,2013-05-02 08:52:00,
2013-05-02 05:07:00,44.3,41.0,30.39,NNW,329,0.0,0.0,88,0.00,,,0.00,0,weatherlink.com 1.10,2013-05-02 09:07:00,
2013-05-02 05:22:00,43.7,41.0,30.39,NNW,329,0.0,0.0,89,0.00,,,0.00,0,weatherlink.com 1.10,2013-05-02 09:22:00,
2013-05-02 05:37:00,43.4,40.0,30.39,NNW,329,0.0,0.0,89,0.00,,,0.00,0,weatherlink.com 1.10,2013-05-02 09:37:00,
2013-05-02 05:53:00,42.8,40.0,30.40,NNW,329,0.0,0.0,89,0.00,,,0.00,0,weatherlink.com 1.10,2013-05-02 09:53:00,
2013-05-02 06:07:00,42.9,40.0,30.40,NNW,329,0.0,0.0,90,0.00,,,0.00,7,weatherlink.com 1.10,2013-05-02 10:07:00,
2013-05-02 06:22:00,43.3,40.0,30.41,NNW,329,0.0,0.0,88,0.00,,,0.00,11,weatherlink.com 1.10,2013-05-02 10:22:00,
2013-05-02 06:37:00,43.9,40.0,30.41,NNW,329,0.0,0.0,86,0.00,,,0.00,16,weatherlink.com 1.10,2013-05-02 10:37:00,
2013-05-02 06:52:00,44.4,40.0,30.41,NNW,329,0.0,2.0,85,0.00,,,0.00,19,weatherlink.com 1.10,2013-05-02 10:52:00,
2013-05-02 07:07:00,45.2,41.0,30.41,NNW,329,0.0,1.0,84,0.00,,,0.00,21,weatherlink.com 1.10,2013-05-02 11:07:00,
2013-05-02 07:22:00,45.9,41.0,30.42,NNW,329,0.0,1.0,82,0.00,,,0.00,25,weatherlink.com 1.10,2013-05-02 11:22:00,
2013-05-02 07:37:00,47.2,41.0,30.42,NNW,329,1.0,1.0,80,0.00,,,0.00,26,weatherlink.com 1.10,2013-05-02 11:37:00,
2013-05-02 07:52:00,48.0,42.0,30.42,NNW,328,0.0,3.0,79,0.00,,,0.00,30,weatherlink.com 1.10,2013-05-02 11:52:00,
2013-05-02 08:07:00,49.3,43.0,30.42,NNW,329,0.0,1.0,78,0.00,,,0.00,32,weatherlink.com 1.10,2013-05-02 12:07:00,
2013-05-02 08:22:00,50.5,43.0,30.42,NNW,329,1.0,2.0,76,0.00,,,0.00,35,weatherlink.com 1.10,2013-05-02 12:22:00,
2013-05-02 08:37:00,51.9,43.0,30.42,NNW,329,1.0,1.0,73,0.00,,,0.00,37,weatherlink.com 1.10,2013-05-02 12:37:00,
2013-05-02 08:52:00,53.4,43.0,30.42,NNW,329,0.0,1.0,69,0.00,,,0.00,39,weatherlink.com 1.10,2013-05-02 12:52:00,
2013-05-02 09:07:00,55.5,45.0,30.42,NNW,329,0.0,1.0,68,0.00,,,0.00,42,weatherlink.com 1.10,2013-05-02 13:07:00,
2013-05-02 09:22:00,56.3,44.0,30.42,NNW,329,0.0,2.0,64,0.00,,,0.00,44,weatherlink.com 1.10,2013-05-02 13:22:00,
2013-05-02 09:37:00,57.3,45.0,30.42,NNW,329,0.0,2.0,63,0.00,,,0.00,46,weatherlink.com 1.10,2013-05-02 13:37:00,
2013-05-02 09:52:00,59.6,45.0,30.42,NNW,328,1.0,2.0,58,0.00,,,0.00,49,weatherlink.com 1.10,2013-05-02 13:52:00,
2013-05-02 10:07:00,60.6,46.0,30.41,NW,325,1.0,3.0,58,0.00,,,0.00,51,weatherlink.com 1.10,2013-05-02 14:07:00,
2013-05-02 10:22:00,61.1,45.0,30.41,WNW,284,0.0,3.0,56,0.00,,,0.00,53,weatherlink.com 1.10,2013-05-02 14:22:00,
2013-05-02 10:38:00,63.5,46.0,30.41,WNW,300,1.0,2.0,53,0.00,,,0.00,56,weatherlink.com 1.10,2013-05-02 14:38:00,
2013-05-02 10:53:00,65.2,45.0,30.40,WNW,300,0.0,1.0,49,0.00,,,0.00,60,weatherlink.com 1.10,2013-05-02 14:53:00,
2013-05-02 11:08:00,67.6,46.0,30.39,WNW,300,0.0,2.0,46,0.00,,,0.00,860,weatherlink.com 1.10,2013-05-02 15:08:00,
2013-05-02 11:23:00,67.1,44.0,30.39,WNW,302,1.0,3.0,43,0.00,,,0.00,884,weatherlink.com 1.10,2013-05-02 15:23:00,
2013-05-02 11:38:00,68.0,43.0,30.38,WSW,253,2.0,2.0,41,0.00,,,0.00,905,weatherlink.com 1.10,2013-05-02 15:38:00,
2013-05-02 11:53:00,69.2,44.0,30.38,SSW,196,2.0,3.0,40,0.00,,,0.00,921,weatherlink.com 1.10,2013-05-02 15:53:00,
2013-05-02 12:08:00,71.4,43.0,30.37,SW,219,0.0,2.0,36,0.00,,,0.00,935,weatherlink.com 1.10,2013-05-02 16:08:00,
2013-05-02 12:23:00,72.7,44.0,30.36,North,355,1.0,4.0,36,0.00,,,0.00,949,weatherlink.com 1.10,2013-05-02 16:23:00,
2013-05-02 12:38:00,73.6,40.0,30.35,NNW,335,1.0,2.0,30,0.00,,,0.00,960,weatherlink.com 1.10,2013-05-02 16:38:00,
2013-05-02 12:53:00,74.5,41.0,30.34,NNW,331,0.0,1.0,30,0.00,,,0.00,974,weatherlink.com 1.10,2013-05-02 16:53:00,
2013-05-02 13:08:00,76.2,40.0,30.34,NNW,329,0.0,2.0,27,0.00,,,0.00,983,weatherlink.com 1.10,2013-05-02 17:08:00,
2013-05-02 13:23:00,76.0,39.0,30.33,NW,320,3.0,4.0,26,0.00,,,0.00,981,weatherlink.com 1.10,2013-05-02 17:23:00,
2013-05-02 13:38:00,76.5,38.0,30.33,WNW,292,0.0,2.0,25,0.00,,,0.00,972,weatherlink.com 1.10,2013-05-02 17:38:00,
2013-05-02 13:53:00,76.9,40.0,30.32,NW,311,0.0,3.0,27,0.00,,,0.00,963,weatherlink.com 1.10,2013-05-02 17:53:00,
2013-05-02 14:08:00,77.1,40.0,30.32,SSW,204,3.0,3.0,26,0.00,,,0.00,949,weatherlink.com 1.10,2013-05-02 18:08:00,
2013-05-02 14:23:00,78.3,39.0,30.31,NW,309,0.0,3.0,24,0.00,,,0.00,932,weatherlink.com 1.10,2013-05-02 18:23:00,
2013-05-02 14:38:00,78.3,38.0,30.31,South,173,2.0,4.0,23,0.00,,,0.00,911,weatherlink.com 1.10,2013-05-02 18:38:00,
2013-05-02 14:53:00,79.2,37.0,30.30,South,172,1.0,4.0,22,0.00,,,0.00,877,weatherlink.com 1.10,2013-05-02 18:53:00,
2013-05-02 15:08:00,80.8,41.0,30.29,South,183,1.0,2.0,24,0.00,,,0.00,853,weatherlink.com 1.10,2013-05-02 19:08:00,
2013-05-02 15:38:00,80.5,39.0,30.28,WSW,241,3.0,4.0,23,0.00,,,0.00,793,weatherlink.com 1.10,2013-05-02 19:38:00,
2013-05-02 15:54:00,80.4,38.0,30.27,South,182,1.0,3.0,22,0.00,,,0.00,749,weatherlink.com 1.10,2013-05-02 19:54:00,
2013-05-02 16:09:00,81.3,42.0,30.27,NW,306,0.0,3.0,25,0.00,,,0.00,707,weatherlink.com 1.10,2013-05-02 20:09:00,
2013-05-02 16:24:00,80.9,41.0,30.26,WNW,290,0.0,2.0,24,0.00,,,0.00,656,weatherlink.com 1.10,2013-05-02 20:24:00,
2013-05-02 16:39:00,81.5,39.0,30.26,NW,311,1.0,3.0,22,0.00,,,0.00,592,weatherlink.com 1.10,2013-05-02 20:39:00,
2013-05-02 16:54:00,81.5,41.0,30.25,WNW,285,2.0,3.0,24,0.00,,,0.00,573,weatherlink.com 1.10,2013-05-02 20:54:00,
2013-05-02 17:09:00,80.9,41.0,30.25,SSW,203,1.0,4.0,24,0.00,,,0.00,513,weatherlink.com 1.10,2013-05-02 21:09:00,
2013-05-02 17:24:00,80.6,39.0,30.24,WNW,289,0.0,2.0,23,0.00,,,0.00,455,weatherlink.com 1.10,2013-05-02 21:24:00,
2013-05-02 17:39:00,80.2,39.0,30.24,NW,321,1.0,3.0,23,0.00,,,0.00,415,weatherlink.com 1.10,2013-05-02 21:39:00,
2013-05-02 17:54:00,80.2,41.0,30.23,NW,321,0.0,1.0,25,0.00,,,0.00,355,weatherlink.com 1.10,2013-05-02 21:54:00,
2013-05-02 18:09:00,79.4,41.0,30.23,NW,321,1.0,1.0,25,0.00,,,0.00,302,weatherlink.com 1.10,2013-05-02 22:09:00,
2013-05-02 18:24:00,79.4,42.0,30.22,NW,321,0.0,2.0,26,0.00,,,0.00,246,weatherlink.com 1.10,2013-05-02 22:24:00,
2013-05-02 18:39:00,79.4,44.0,30.22,NW,320,0.0,2.0,29,0.00,,,0.00,181,weatherlink.com 1.10,2013-05-02 22:39:00,
2013-05-02 18:54:00,77.8,42.0,30.22,NW,320,0.0,1.0,28,0.00,,,0.00,130,weatherlink.com 1.10,2013-05-02 22:54:00,
2013-05-02 19:09:00,76.6,43.0,30.22,NW,320,0.0,1.0,30,0.00,,,0.00,81,weatherlink.com 1.10,2013-05-02 23:09:00,
2013-05-02 19:24:00,74.4,42.0,30.22,NW,320,0.0,1.0,31,0.00,,,0.00,40,weatherlink.com 1.10,2013-05-02 23:24:00,
2013-05-02 19:39:00,72.6,45.0,30.22,NW,320,0.0,1.0,37,0.00,,,0.00,11,weatherlink.com 1.10,2013-05-02 23:39:00,
2013-05-02 19:54:00,71.0,45.0,30.22,NW,320,0.0,1.0,39,0.00,,,0.00,0,weatherlink.com 1.10,2013-05-02 23:54:00,
2013-05-02 20:09:00,69.3,44.0,30.22,NW,320,0.0,0.0,41,0.00,,,0.00,0,weatherlink.com 1.10,2013-05-03 00:09:00,
2013-05-02 20:24:00,67.5,45.0,30.22,NW,320,0.0,0.0,44,0.00,,,0.00,0,weatherlink.com 1.10,2013-05-03 00:24:00,
2013-05-02 20:39:00,66.3,45.0,30.22,NW,320,0.0,0.0,47,0.00,,,0.00,0,weatherlink.com 1.10,2013-05-03 00:39:00,
2013-05-02 20:54:00,65.5,46.0,30.23,NW,320,0.0,0.0,50,0.00,,,0.00,0,weatherlink.com 1.10,2013-05-03 00:54:00,
2013-05-02 21:09:00,65.2,47.0,30.23,NW,320,0.0,0.0,52,0.00,,,0.00,0,weatherlink.com 1.10,2013-05-03 01:09:00,
2013-05-02 21:24:00,64.8,48.0,30.23,NW,320,0.0,0.0,54,0.00,,,0.00,0,weatherlink.com 1.10,2013-05-03 01:24:00,
2013-05-02 21:39:00,65.5,47.0,30.25,WNW,294,0.0,3.0,52,0.00,,,0.00,0,weatherlink.com 1.10,2013-05-03 01:39:00,
2013-05-02 21:54:00,66.1,45.0,30.26,WNW,301,1.0,2.0,47,0.00,,,0.00,0,weatherlink.com 1.10,2013-05-03 01:54:00,
2013-05-02 22:09:00,67.1,44.0,30.26,NW,317,0.0,3.0,43,0.00,,,0.00,0,weatherlink.com 1.10,2013-05-03 02:09:00,
2013-05-02 22:24:00,66.5,43.0,30.27,West,275,0.0,2.0,43,0.00,,,0.00,0,weatherlink.com 1.10,2013-05-03 02:24:00,
2013-05-02 22:39:00,65.4,43.0,30.28,NNW,336,0.0,2.0,44,0.00,,,0.00,0,weatherlink.com 1.10,2013-05-03 02:39:00,
2013-05-02 22:54:00,64.4,42.0,30.30,NNW,344,0.0,2.0,45,0.00,,,0.00,0,weatherlink.com 1.10,2013-05-03 02:54:00,
2013-05-02 23:09:00,63.8,42.0,30.31,NNW,344,0.0,1.0,46,0.00,,,0.00,0,weatherlink.com 1.10,2013-05-03 03:09:00,
2013-05-02 23:24:00,63.6,42.0,30.32,NNW,344,1.0,2.0,45,0.00,,,0.00,0,weatherlink.com 1.10,2013-05-03 03:24:00,
2013-05-02 23:39:00,63.0,42.0,30.33,NNW,344,1.0,4.0,46,0.00,,,0.00,0,weatherlink.com 1.10,2013-05-03 03:39:00,
2013-05-02 23:54:00,62.3,42.0,30.34,NNW,344,0.0,2.0,47,0.00,,,0.00,0,weatherlink.com 1.10,2013-05-03 03:54:00,